createdAt,value
2018-12-06T00:00:04.971Z,15.4
2018-12-06T00:00:36.931Z,15.4
2018-12-06T00:01:08.908Z,15.38
2018-12-06T00:01:40.876Z,15.4
2018-12-06T00:02:12.864Z,15.26
2018-12-06T00:02:44.853Z,15.4
2018-12-06T00:03:16.832Z,15.4
2018-12-06T00:03:48.831Z,15.4
2018-12-06T00:04:20.822Z,15.35
2018-12-06T00:04:52.803Z,15.38
2018-12-06T00:05:24.777Z,15.35
2018-12-06T00:05:56.764Z,15.38
2018-12-06T00:06:28.832Z,15.33
2018-12-06T00:07:00.898Z,15.4
2018-12-06T00:07:32.897Z,15.38
2018-12-06T00:08:04.872Z,15.41
2018-12-06T00:08:36.839Z,15.4
2018-12-06T00:09:08.817Z,15.35
2018-12-06T00:09:40.793Z,15.35
2018-12-06T00:10:12.779Z,15.34
2018-12-06T00:10:44.759Z,15.4
2018-12-06T00:11:16.832Z,15.4
2018-12-06T00:11:48.808Z,15.37
2018-12-06T00:12:20.796Z,15.38
2018-12-06T00:12:52.772Z,15.37
2018-12-06T00:13:24.761Z,15.35
2018-12-06T00:13:56.737Z,15.37
2018-12-06T00:14:28.711Z,15.4
2018-12-06T00:15:00.690Z,15.43
2018-12-06T00:15:32.664Z,15.34
2018-12-06T00:16:04.648Z,15.41
2018-12-06T00:16:36.624Z,15.4
2018-12-06T00:17:08.598Z,15.51
2018-12-06T00:17:40.564Z,15.43
2018-12-06T00:18:12.551Z,15.35
2018-12-06T00:18:44.546Z,15.37
2018-12-06T00:19:16.536Z,15.37
2018-12-06T00:19:48.522Z,15.33
2018-12-06T00:20:20.501Z,15.31
2018-12-06T00:20:52.467Z,15.41
2018-12-06T00:21:24.451Z,15.4
2018-12-06T00:21:56.433Z,15.4
2018-12-06T00:22:28.412Z,15.51
2018-12-06T00:23:00.375Z,15.43
2018-12-06T00:23:32.350Z,15.31
2018-12-06T00:24:04.441Z,15.45
2018-12-06T00:24:36.423Z,15.51
2018-12-06T00:25:08.410Z,15.33
2018-12-06T00:25:40.383Z,15.4
2018-12-06T00:26:12.343Z,15.44
2018-12-06T00:26:44.314Z,15.38
2018-12-06T00:27:16.288Z,15.4
2018-12-06T00:27:48.271Z,15.31
2018-12-06T00:28:20.238Z,15.35
2018-12-06T00:28:52.214Z,15.34
2018-12-06T00:29:24.179Z,15.41
2018-12-06T00:29:56.165Z,15.43
2018-12-06T00:30:28.147Z,15.4
2018-12-06T00:31:00.118Z,15.38
2018-12-06T00:31:32.170Z,15.31
2018-12-06T00:32:04.153Z,15.43
2018-12-06T00:32:36.132Z,15.43
2018-12-06T00:33:08.096Z,15.43
2018-12-06T00:33:40.079Z,15.43
2018-12-06T00:34:12.047Z,15.33
2018-12-06T00:34:44.016Z,15.35
2018-12-06T00:35:15.989Z,15.34
2018-12-06T00:35:47.959Z,15.44
2018-12-06T00:36:19.938Z,15.3
2018-12-06T00:36:51.937Z,15.4
2018-12-06T00:37:23.908Z,15.37
2018-12-06T00:37:55.893Z,15.33
2018-12-06T00:38:27.957Z,15.37
2018-12-06T00:38:59.931Z,15.43
2018-12-06T00:39:31.942Z,15.51
2018-12-06T00:40:03.918Z,15.41
2018-12-06T00:40:35.888Z,15.43
2018-12-06T00:41:07.866Z,15.4
2018-12-06T00:41:39.865Z,15.45
2018-12-06T00:42:11.842Z,15.43
2018-12-06T00:42:43.822Z,15.44
2018-12-06T00:43:15.792Z,15.44
2018-12-06T00:43:47.797Z,15.35
2018-12-06T00:44:19.777Z,15.35
2018-12-06T00:44:51.810Z,15.41
2018-12-06T00:45:23.785Z,15.33
2018-12-06T00:45:55.762Z,15.47
2018-12-06T00:46:27.744Z,15.4
2018-12-06T00:46:59.731Z,15.35
2018-12-06T00:47:31.726Z,15.43
2018-12-06T00:48:03.696Z,15.4
2018-12-06T00:48:35.689Z,15.45
2018-12-06T00:49:07.688Z,15.45
2018-12-06T00:49:39.658Z,15.44
2018-12-06T00:50:11.635Z,15.4
2018-12-06T00:50:43.613Z,15.4
2018-12-06T00:51:15.610Z,15.45
2018-12-06T00:51:47.592Z,15.43
2018-12-06T00:52:19.590Z,15.43
2018-12-06T00:52:51.580Z,15.47
2018-12-06T00:53:23.547Z,15.44
2018-12-06T00:53:55.513Z,15.45
2018-12-06T00:54:27.498Z,15.47
2018-12-06T00:54:59.474Z,15.47
2018-12-06T00:55:31.441Z,15.47
2018-12-06T00:56:03.423Z,15.44
2018-12-06T00:56:35.403Z,15.44
2018-12-06T00:57:07.381Z,15.49
2018-12-06T00:57:39.381Z,15.45
2018-12-06T00:58:11.366Z,15.41
2018-12-06T00:58:43.357Z,15.47
2018-12-06T00:59:15.372Z,15.49
2018-12-06T00:59:47.339Z,15.43
2018-12-06T01:00:19.320Z,15.38
2018-12-06T01:00:51.299Z,15.44
2018-12-06T01:01:23.279Z,15.43
2018-12-06T01:01:55.280Z,15.41
2018-12-06T01:02:27.258Z,15.41
2018-12-06T01:02:59.230Z,15.41
2018-12-06T01:03:31.215Z,15.4
2018-12-06T01:04:03.193Z,15.43
2018-12-06T01:04:35.167Z,15.44
2018-12-06T01:05:07.184Z,15.41
2018-12-06T01:05:39.159Z,15.51
2018-12-06T01:06:11.167Z,15.49
2018-12-06T01:06:43.147Z,15.41
2018-12-06T01:07:15.128Z,15.38
2018-12-06T01:07:47.109Z,15.47
2018-12-06T01:08:19.088Z,15.41
2018-12-06T01:08:51.075Z,15.49
2018-12-06T01:09:23.064Z,15.45
2018-12-06T01:09:55.157Z,15.45
2018-12-06T01:10:27.133Z,15.51
2018-12-06T01:10:59.111Z,15.41
2018-12-06T01:11:31.120Z,15.45
2018-12-06T01:12:03.114Z,15.49
2018-12-06T01:12:35.094Z,15.49
2018-12-06T01:13:07.081Z,15.49
2018-12-06T01:13:39.058Z,15.47
2018-12-06T01:14:11.045Z,15.47
2018-12-06T01:14:43.087Z,15.47
2018-12-06T01:15:15.057Z,15.43
2018-12-06T01:15:47.010Z,15.47
2018-12-06T01:16:18.979Z,15.47
2018-12-06T01:16:50.963Z,15.49
2018-12-06T01:17:23.035Z,15.44
2018-12-06T01:17:55.038Z,15.41
2018-12-06T01:18:27.023Z,15.45
2018-12-06T01:18:59.005Z,15.41
2018-12-06T01:19:31.052Z,15.47
2018-12-06T01:20:03.098Z,15.52
2018-12-06T01:20:35.084Z,15.45
2018-12-06T01:21:07.069Z,15.49
2018-12-06T01:21:39.034Z,15.47
2018-12-06T01:22:11.036Z,15.52
2018-12-06T01:22:43.019Z,15.51
2018-12-06T01:23:15.011Z,15.45
2018-12-06T01:23:46.986Z,15.51
2018-12-06T01:24:18.963Z,15.52
2018-12-06T01:24:51.135Z,15.49
2018-12-06T01:25:23.127Z,15.41
2018-12-06T01:25:55.106Z,15.43
2018-12-06T01:26:27.088Z,15.47
2018-12-06T01:26:59.132Z,15.51
2018-12-06T01:27:31.109Z,15.52
2018-12-06T01:28:03.075Z,15.53
2018-12-06T01:28:35.042Z,15.53
2018-12-06T01:29:07.019Z,15.51
2018-12-06T01:29:38.976Z,15.51
2018-12-06T01:30:10.946Z,15.52
2018-12-06T01:30:42.920Z,15.58
2018-12-06T01:31:14.901Z,15.51
2018-12-06T01:31:46.887Z,15.51
2018-12-06T01:32:18.880Z,15.56
2018-12-06T01:32:50.964Z,15.52
2018-12-06T01:33:23.039Z,15.47
2018-12-06T01:33:55.022Z,15.51
2018-12-06T01:34:27.009Z,15.47
2018-12-06T01:34:58.996Z,15.51
2018-12-06T01:35:30.989Z,15.55
2018-12-06T01:36:02.994Z,15.56
2018-12-06T01:36:34.966Z,15.52
2018-12-06T01:37:06.945Z,15.52
2018-12-06T01:37:38.937Z,15.47
2018-12-06T01:38:10.903Z,15.49
2018-12-06T01:38:42.893Z,15.51
2018-12-06T01:39:14.866Z,15.53
2018-12-06T01:39:46.839Z,15.52
2018-12-06T01:40:18.917Z,15.56
2018-12-06T01:40:50.909Z,15.51
2018-12-06T01:41:22.886Z,15.55
2018-12-06T01:41:54.874Z,15.56
2018-12-06T01:42:26.856Z,15.47
2018-12-06T01:42:58.831Z,15.49
2018-12-06T01:43:30.814Z,15.49
2018-12-06T01:44:02.789Z,15.49
2018-12-06T01:44:34.769Z,15.51
2018-12-06T01:45:06.766Z,15.58
2018-12-06T01:45:38.724Z,15.49
2018-12-06T01:46:10.717Z,15.58
2018-12-06T01:46:42.691Z,15.55
2018-12-06T01:47:14.704Z,15.51
2018-12-06T01:47:46.690Z,15.53
2018-12-06T01:48:18.655Z,15.58
2018-12-06T01:48:50.635Z,15.55
2018-12-06T01:49:22.614Z,15.53
2018-12-06T01:49:54.594Z,15.51
2018-12-06T01:50:26.582Z,15.52
2018-12-06T01:50:58.571Z,15.55
2018-12-06T01:51:30.558Z,15.56
2018-12-06T01:52:02.537Z,15.51
2018-12-06T01:52:34.511Z,15.56
2018-12-06T01:53:06.488Z,15.51
2018-12-06T01:53:38.428Z,15.47
2018-12-06T01:54:10.403Z,15.55
2018-12-06T01:54:42.394Z,15.52
2018-12-06T01:55:14.368Z,15.53
2018-12-06T01:55:46.341Z,15.45
2018-12-06T01:56:18.303Z,15.52
2018-12-06T01:56:50.286Z,15.53
2018-12-06T01:57:22.262Z,15.49
2018-12-06T01:57:54.221Z,15.45
2018-12-06T01:58:26.199Z,15.55
2018-12-06T01:58:58.169Z,15.53
2018-12-06T01:59:30.202Z,15.51
2018-12-06T02:00:02.181Z,15.49
2018-12-06T02:00:34.142Z,15.53
2018-12-06T02:01:06.112Z,15.51
2018-12-06T02:01:38.104Z,15.52
2018-12-06T02:02:10.097Z,15.53
2018-12-06T02:02:42.073Z,15.55
2018-12-06T02:03:14.058Z,15.55
2018-12-06T02:03:46.033Z,15.51
2018-12-06T02:04:18.008Z,15.56
2018-12-06T02:04:49.997Z,15.52
2018-12-06T02:05:21.974Z,15.51
2018-12-06T02:05:53.956Z,15.49
2018-12-06T02:06:25.945Z,15.52
2018-12-06T02:06:57.924Z,15.52
2018-12-06T02:07:29.899Z,15.56
2018-12-06T02:08:01.868Z,15.56
2018-12-06T02:08:33.861Z,15.51
2018-12-06T02:09:05.832Z,15.58
2018-12-06T02:09:37.795Z,15.49
2018-12-06T02:10:09.839Z,15.55
2018-12-06T02:10:41.823Z,15.62
2018-12-06T02:11:13.795Z,15.58
2018-12-06T02:11:45.764Z,15.53
2018-12-06T02:12:17.744Z,15.52
2018-12-06T02:12:49.735Z,15.62
2018-12-06T02:13:21.724Z,15.56
2018-12-06T02:13:53.719Z,15.55
2018-12-06T02:14:25.734Z,15.52
2018-12-06T02:14:57.715Z,15.52
2018-12-06T02:15:29.708Z,15.52
2018-12-06T02:16:01.697Z,15.59
2018-12-06T02:16:33.660Z,15.51
2018-12-06T02:17:05.642Z,15.51
2018-12-06T02:17:37.644Z,15.52
2018-12-06T02:18:09.609Z,15.58
2018-12-06T02:18:41.619Z,15.53
2018-12-06T02:19:13.604Z,15.62
2018-12-06T02:19:45.577Z,15.49
2018-12-06T02:20:17.543Z,15.52
2018-12-06T02:20:49.533Z,15.6
2018-12-06T02:21:21.523Z,15.55
2018-12-06T02:21:53.494Z,15.59
2018-12-06T02:22:25.463Z,15.63
2018-12-06T02:22:57.431Z,15.62
2018-12-06T02:23:29.422Z,15.58
2018-12-06T02:24:01.396Z,15.58
2018-12-06T02:24:33.369Z,15.59
2018-12-06T02:25:05.364Z,15.53
2018-12-06T02:25:37.329Z,15.6
2018-12-06T02:26:09.313Z,15.55
2018-12-06T02:26:41.293Z,15.56
2018-12-06T02:27:13.263Z,15.56
2018-12-06T02:27:45.337Z,15.58
2018-12-06T02:28:17.304Z,15.59
2018-12-06T02:28:49.276Z,15.6
2018-12-06T02:29:21.257Z,15.6
2018-12-06T02:29:53.240Z,15.6
2018-12-06T02:30:25.210Z,15.58
2018-12-06T02:30:57.192Z,15.56
2018-12-06T02:31:29.193Z,15.6
2018-12-06T02:32:01.311Z,15.6
2018-12-06T02:32:33.292Z,15.62
2018-12-06T02:33:05.272Z,15.55
2018-12-06T02:33:37.280Z,15.6
2018-12-06T02:34:09.276Z,15.58
2018-12-06T02:34:41.272Z,15.58
2018-12-06T02:35:13.273Z,15.58
2018-12-06T02:35:45.265Z,15.6
2018-12-06T02:36:17.277Z,15.53
2018-12-06T02:36:49.262Z,15.62
2018-12-06T02:37:21.253Z,15.6
2018-12-06T02:37:53.240Z,15.62
2018-12-06T02:38:25.346Z,15.62
2018-12-06T02:38:57.340Z,15.58
2018-12-06T02:39:29.325Z,15.53
2018-12-06T02:40:01.303Z,15.6
2018-12-06T02:40:33.281Z,15.6
2018-12-06T02:41:05.266Z,15.6
2018-12-06T02:41:37.257Z,15.59
2018-12-06T02:42:09.247Z,15.63
2018-12-06T02:42:41.225Z,15.55
2018-12-06T02:43:13.207Z,15.59
2018-12-06T02:43:45.190Z,15.6
2018-12-06T02:44:17.177Z,15.53
2018-12-06T02:44:49.171Z,15.62
2018-12-06T02:45:21.159Z,15.63
2018-12-06T02:45:53.139Z,15.56
2018-12-06T02:46:25.120Z,15.53
2018-12-06T02:46:57.105Z,15.53
2018-12-06T02:47:29.093Z,15.62
2018-12-06T02:48:01.088Z,15.62
2018-12-06T02:48:33.082Z,15.6
2018-12-06T02:49:05.101Z,15.55
2018-12-06T02:49:37.077Z,15.52
2018-12-06T02:50:09.047Z,15.6
2018-12-06T02:50:41.023Z,15.59
2018-12-06T02:51:13.010Z,15.62
2018-12-06T02:51:45.023Z,15.6
2018-12-06T02:52:17.005Z,15.63
2018-12-06T02:52:49.003Z,15.62
2018-12-06T02:53:21.010Z,15.63
2018-12-06T02:53:52.996Z,15.51
2018-12-06T02:54:24.996Z,15.58
2018-12-06T02:54:56.983Z,15.63
2018-12-06T02:55:28.962Z,15.56
2018-12-06T02:56:00.952Z,15.63
2018-12-06T02:56:32.931Z,15.62
2018-12-06T02:57:04.926Z,15.59
2018-12-06T02:57:36.907Z,15.59
2018-12-06T02:58:08.910Z,15.62
2018-12-06T02:58:40.900Z,15.51
2018-12-06T02:59:13.098Z,15.6
2018-12-06T02:59:45.107Z,15.6
2018-12-06T03:00:17.097Z,15.58
2018-12-06T03:00:49.110Z,15.59
2018-12-06T03:01:21.085Z,15.67
2018-12-06T03:01:53.077Z,15.58
2018-12-06T03:02:25.057Z,15.58
2018-12-06T03:02:57.056Z,15.63
2018-12-06T03:03:29.111Z,15.62
2018-12-06T03:04:01.095Z,15.62
2018-12-06T03:04:33.104Z,15.6
2018-12-06T03:05:05.082Z,15.62
2018-12-06T03:05:37.129Z,15.58
2018-12-06T03:06:09.126Z,15.62
2018-12-06T03:06:41.109Z,15.63
2018-12-06T03:07:13.105Z,15.58
2018-12-06T03:07:45.081Z,15.62
2018-12-06T03:08:17.066Z,15.6
2018-12-06T03:08:49.068Z,15.56
2018-12-06T03:09:21.041Z,15.6
2018-12-06T03:09:53.016Z,15.6
2018-12-06T03:10:25.010Z,15.6
2018-12-06T03:10:57.009Z,15.58
2018-12-06T03:11:28.997Z,15.6
2018-12-06T03:12:00.987Z,15.6
2018-12-06T03:12:33.000Z,15.6
2018-12-06T03:13:04.985Z,15.59
2018-12-06T03:13:36.957Z,15.6
2018-12-06T03:14:09.021Z,15.58
2018-12-06T03:14:41.006Z,15.62
2018-12-06T03:15:12.995Z,15.55
2018-12-06T03:15:44.975Z,15.6
2018-12-06T03:16:16.955Z,15.62
2018-12-06T03:16:48.926Z,15.58
2018-12-06T03:17:20.924Z,15.67
2018-12-06T03:17:52.981Z,15.59
2018-12-06T03:18:24.960Z,15.59
2018-12-06T03:18:56.943Z,15.56
2018-12-06T03:19:28.925Z,15.63
2018-12-06T03:20:00.897Z,15.59
2018-12-06T03:20:32.895Z,15.65
2018-12-06T03:21:04.879Z,15.56
2018-12-06T03:21:36.869Z,15.65
2018-12-06T03:22:08.855Z,15.58
2018-12-06T03:22:40.838Z,15.6
2018-12-06T03:23:12.820Z,15.65
2018-12-06T03:23:44.837Z,15.63
2018-12-06T03:24:16.818Z,15.6
2018-12-06T03:24:48.802Z,15.62
2018-12-06T03:25:20.789Z,15.65
2018-12-06T03:25:52.793Z,15.58
2018-12-06T03:26:24.778Z,15.59
2018-12-06T03:26:56.765Z,15.63
2018-12-06T03:27:28.763Z,15.58
2018-12-06T03:28:00.763Z,15.6
2018-12-06T03:28:32.761Z,15.59
2018-12-06T03:29:04.746Z,15.62
2018-12-06T03:29:36.719Z,15.6
2018-12-06T03:30:08.703Z,15.58
2018-12-06T03:30:40.741Z,15.62
2018-12-06T03:31:12.783Z,15.59
2018-12-06T03:31:44.801Z,15.62
2018-12-06T03:32:16.870Z,15.7
2018-12-06T03:32:48.868Z,15.67
2018-12-06T03:33:20.881Z,15.56
2018-12-06T03:33:52.933Z,15.59
2018-12-06T03:34:24.930Z,15.65
2018-12-06T03:34:56.915Z,15.63
2018-12-06T03:35:28.910Z,15.59
2018-12-06T03:36:00.915Z,15.59
2018-12-06T03:36:32.904Z,15.67
2018-12-06T03:37:04.882Z,15.63
2018-12-06T03:37:36.952Z,15.59
2018-12-06T03:38:08.938Z,15.7
2018-12-06T03:38:40.914Z,15.63
2018-12-06T03:39:12.893Z,15.65
2018-12-06T03:39:44.866Z,15.63
2018-12-06T03:40:16.851Z,15.59
2018-12-06T03:40:48.844Z,15.58
2018-12-06T03:41:20.831Z,15.67
2018-12-06T03:41:52.833Z,15.62
2018-12-06T03:42:24.799Z,15.56
2018-12-06T03:42:56.780Z,15.63
2018-12-06T03:43:28.797Z,15.56
2018-12-06T03:44:00.783Z,15.63
2018-12-06T03:44:32.775Z,15.62
2018-12-06T03:45:04.757Z,15.56
2018-12-06T03:45:36.790Z,15.63
2018-12-06T03:46:08.774Z,15.65
2018-12-06T03:46:40.760Z,15.6
2018-12-06T03:47:12.759Z,15.67
2018-12-06T03:47:44.745Z,15.65
2018-12-06T03:48:16.759Z,15.62
2018-12-06T03:48:48.751Z,15.63
2018-12-06T03:49:20.760Z,15.68
2018-12-06T03:49:52.749Z,15.56
2018-12-06T03:50:24.738Z,15.6
2018-12-06T03:50:56.717Z,15.68
2018-12-06T03:51:28.708Z,15.68
2018-12-06T03:52:00.701Z,15.71
2018-12-06T03:52:32.747Z,15.63
2018-12-06T03:53:04.848Z,15.65
2018-12-06T03:53:36.830Z,15.56
2018-12-06T03:54:08.798Z,15.6
2018-12-06T03:54:40.869Z,15.68
2018-12-06T03:55:12.855Z,15.65
2018-12-06T03:55:44.892Z,15.58
2018-12-06T03:56:16.891Z,15.58
2018-12-06T03:56:48.868Z,15.58
2018-12-06T03:57:20.881Z,15.62
2018-12-06T03:57:52.868Z,15.65
2018-12-06T03:58:24.853Z,15.59
2018-12-06T03:58:56.834Z,15.59
2018-12-06T03:59:28.821Z,15.56
2018-12-06T04:00:00.833Z,15.56
2018-12-06T04:00:32.845Z,15.67
2018-12-06T04:01:04.821Z,15.63
2018-12-06T04:01:36.849Z,15.67
2018-12-06T04:02:08.863Z,15.59
2018-12-06T04:02:40.836Z,15.59
2018-12-06T04:03:12.837Z,15.65
2018-12-06T04:03:44.820Z,15.56
2018-12-06T04:04:16.798Z,15.6
2018-12-06T04:04:48.794Z,15.6
2018-12-06T04:05:20.771Z,15.62
2018-12-06T04:05:52.855Z,15.59
2018-12-06T04:06:24.825Z,15.56
2018-12-06T04:06:56.803Z,15.52
2018-12-06T04:07:28.789Z,15.6
2018-12-06T04:08:00.769Z,15.65
2018-12-06T04:08:32.751Z,15.63
2018-12-06T04:09:04.753Z,15.58
2018-12-06T04:09:36.746Z,15.59
2018-12-06T04:10:08.729Z,15.63
2018-12-06T04:10:40.718Z,15.67
2018-12-06T04:11:12.711Z,15.58
2018-12-06T04:11:44.699Z,15.6
2018-12-06T04:12:16.686Z,15.59
2018-12-06T04:12:48.662Z,15.6
2018-12-06T04:13:20.658Z,15.56
2018-12-06T04:13:52.798Z,15.59
2018-12-06T04:14:24.789Z,15.65
2018-12-06T04:14:56.774Z,15.67
2018-12-06T04:15:28.758Z,15.63
2018-12-06T04:16:00.769Z,15.65
2018-12-06T04:16:32.757Z,15.59
2018-12-06T04:17:04.738Z,15.6
2018-12-06T04:17:36.715Z,15.59
2018-12-06T04:18:08.711Z,15.59
2018-12-06T04:18:40.691Z,15.63
2018-12-06T04:19:12.691Z,15.62
2018-12-06T04:19:44.685Z,15.62
2018-12-06T04:20:16.664Z,15.65
2018-12-06T04:20:48.645Z,15.59
2018-12-06T04:21:20.620Z,15.63
2018-12-06T04:21:52.667Z,15.56
2018-12-06T04:22:24.657Z,15.65
2018-12-06T04:22:56.650Z,15.62
2018-12-06T04:23:28.640Z,15.6
2018-12-06T04:24:00.616Z,15.59
2018-12-06T04:24:32.609Z,15.59
2018-12-06T04:25:04.589Z,15.6
2018-12-06T04:25:36.557Z,15.56
2018-12-06T04:26:08.539Z,15.51
2018-12-06T04:26:40.524Z,15.63
2018-12-06T04:27:12.542Z,15.55
2018-12-06T04:27:44.534Z,15.56
2018-12-06T04:28:16.511Z,15.63
2018-12-06T04:28:48.496Z,15.59
2018-12-06T04:29:20.489Z,15.63
2018-12-06T04:29:52.467Z,15.65
2018-12-06T04:30:24.447Z,15.62
2018-12-06T04:30:56.429Z,15.6
2018-12-06T04:31:28.395Z,15.6
2018-12-06T04:32:00.369Z,15.62
2018-12-06T04:32:32.347Z,15.6
2018-12-06T04:33:04.354Z,15.62
2018-12-06T04:33:36.317Z,15.51
2018-12-06T04:34:08.303Z,15.53
2018-12-06T04:34:40.291Z,15.53
2018-12-06T04:35:12.268Z,15.58
2018-12-06T04:35:44.248Z,15.63
2018-12-06T04:36:16.225Z,15.62
2018-12-06T04:36:48.220Z,15.6
2018-12-06T04:37:20.221Z,15.63
2018-12-06T04:37:52.221Z,15.56
2018-12-06T04:38:24.292Z,15.62
2018-12-06T04:38:56.278Z,15.53
2018-12-06T04:39:28.273Z,15.62
2018-12-06T04:40:00.273Z,15.63
2018-12-06T04:40:32.251Z,15.6
2018-12-06T04:41:04.244Z,15.6
2018-12-06T04:41:36.231Z,15.62
2018-12-06T04:42:08.206Z,15.59
2018-12-06T04:42:40.190Z,15.59
2018-12-06T04:43:12.282Z,15.6
2018-12-06T04:43:44.274Z,15.59
2018-12-06T04:44:16.253Z,15.52
2018-12-06T04:44:48.249Z,15.62
2018-12-06T04:45:20.233Z,15.52
2018-12-06T04:45:52.223Z,15.67
2018-12-06T04:46:24.192Z,15.6
2018-12-06T04:46:56.171Z,15.59
2018-12-06T04:47:28.171Z,15.59
2018-12-06T04:48:00.238Z,15.51
2018-12-06T04:48:32.220Z,15.58
2018-12-06T04:49:04.190Z,15.59
2018-12-06T04:49:36.180Z,15.58
2018-12-06T04:50:08.162Z,15.59
2018-12-06T04:50:40.188Z,15.62
2018-12-06T04:51:12.169Z,15.63
2018-12-06T04:51:44.147Z,15.63
2018-12-06T04:52:16.135Z,15.62
2018-12-06T04:52:48.112Z,15.58
2018-12-06T04:53:20.115Z,15.65
2018-12-06T04:53:52.106Z,15.59
2018-12-06T04:54:24.084Z,15.62
2018-12-06T04:54:56.081Z,15.63
2018-12-06T04:55:28.069Z,15.59
2018-12-06T04:56:00.043Z,15.55
2018-12-06T04:56:32.093Z,15.53
2018-12-06T04:57:04.082Z,15.52
2018-12-06T04:57:36.060Z,15.51
2018-12-06T04:58:08.039Z,15.59
2018-12-06T04:58:40.019Z,15.59
2018-12-06T04:59:11.995Z,15.59
2018-12-06T04:59:43.990Z,15.58
2018-12-06T05:00:15.979Z,15.62
2018-12-06T05:00:47.960Z,15.63
2018-12-06T05:01:19.949Z,15.6
2018-12-06T05:01:51.969Z,15.58
2018-12-06T05:02:23.956Z,15.62
2018-12-06T05:02:55.927Z,15.6
2018-12-06T05:03:27.912Z,15.59
2018-12-06T05:03:59.879Z,15.6
2018-12-06T05:04:31.862Z,15.56
2018-12-06T05:05:03.838Z,15.53
2018-12-06T05:05:35.818Z,15.6
2018-12-06T05:06:07.787Z,15.53
2018-12-06T05:06:39.766Z,15.63
2018-12-06T05:07:11.750Z,15.58
2018-12-06T05:07:43.736Z,15.63
2018-12-06T05:08:15.710Z,15.63
2018-12-06T05:08:47.718Z,15.59
2018-12-06T05:09:19.706Z,15.63
2018-12-06T05:09:51.687Z,15.58
2018-12-06T05:10:23.677Z,15.55
2018-12-06T05:10:55.669Z,15.62
2018-12-06T05:11:27.643Z,15.59
2018-12-06T05:11:59.612Z,15.65
2018-12-06T05:12:31.604Z,15.62
2018-12-06T05:13:03.584Z,15.58
2018-12-06T05:13:35.559Z,15.55
2018-12-06T05:14:07.537Z,15.58
2018-12-06T05:14:39.524Z,15.59
2018-12-06T05:15:11.505Z,15.6
2018-12-06T05:15:43.479Z,15.6
2018-12-06T05:16:15.448Z,15.63
2018-12-06T05:16:47.421Z,15.6
2018-12-06T05:17:19.402Z,15.65
2018-12-06T05:17:51.381Z,15.62
2018-12-06T05:18:23.354Z,15.53
2018-12-06T05:18:55.402Z,15.63
2018-12-06T05:19:27.385Z,15.63
2018-12-06T05:19:59.369Z,15.58
2018-12-06T05:20:31.348Z,15.58
2018-12-06T05:21:03.330Z,15.56
2018-12-06T05:21:35.323Z,15.65
2018-12-06T05:22:07.303Z,15.62
2018-12-06T05:22:39.291Z,15.53
2018-12-06T05:23:11.252Z,15.53
2018-12-06T05:23:43.227Z,15.58
2018-12-06T05:24:15.234Z,15.62
2018-12-06T05:24:47.222Z,15.63
2018-12-06T05:25:19.217Z,15.63
2018-12-06T05:25:51.216Z,15.62
2018-12-06T05:26:23.188Z,15.56
2018-12-06T05:26:55.176Z,15.59
2018-12-06T05:27:27.152Z,15.59
2018-12-06T05:27:59.143Z,15.6
2018-12-06T05:28:31.116Z,15.65
2018-12-06T05:29:03.086Z,15.53
2018-12-06T05:29:35.048Z,15.68
2018-12-06T05:30:08.439Z,15.58
2018-12-06T05:30:40.577Z,15.53
2018-12-06T05:31:12.561Z,15.59
2018-12-06T05:31:44.543Z,15.58
2018-12-06T05:32:16.525Z,15.65
2018-12-06T05:32:48.496Z,15.59
2018-12-06T05:33:20.480Z,15.63
2018-12-06T05:33:52.465Z,15.63
2018-12-06T05:34:24.454Z,15.59
2018-12-06T05:34:56.434Z,15.62
2018-12-06T05:35:28.506Z,15.6
2018-12-06T05:36:00.490Z,15.63
2018-12-06T05:36:32.458Z,15.62
2018-12-06T05:37:04.481Z,15.59
2018-12-06T05:37:36.516Z,15.6
2018-12-06T05:38:08.499Z,15.6
2018-12-06T05:38:41.718Z,15.58
2018-12-06T05:39:13.823Z,15.65
2018-12-06T05:39:45.790Z,15.65
2018-12-06T05:40:17.753Z,15.6
2018-12-06T05:40:49.723Z,15.63
2018-12-06T05:41:21.701Z,15.62
2018-12-06T05:41:53.678Z,15.65
2018-12-06T05:42:25.653Z,15.63
2018-12-06T05:42:57.626Z,15.73
2018-12-06T05:43:29.600Z,15.58
2018-12-06T05:44:01.660Z,15.63
2018-12-06T05:44:33.628Z,15.56
2018-12-06T05:45:05.597Z,15.73
2018-12-06T05:45:37.585Z,15.62
2018-12-06T05:46:09.565Z,15.67
2018-12-06T05:46:41.561Z,15.67
2018-12-06T05:47:13.553Z,15.62
2018-12-06T05:47:45.520Z,15.6
2018-12-06T05:48:17.496Z,15.65
2018-12-06T05:48:49.487Z,15.62
2018-12-06T05:49:21.442Z,15.58
2018-12-06T05:49:53.401Z,15.68
2018-12-06T05:50:25.468Z,15.62
2018-12-06T05:50:57.445Z,15.6
2018-12-06T05:51:29.500Z,15.59
2018-12-06T05:52:01.488Z,15.56
2018-12-06T05:52:33.474Z,15.62
2018-12-06T05:53:05.436Z,15.68
2018-12-06T05:53:37.416Z,15.62
2018-12-06T05:54:09.395Z,15.58
2018-12-06T05:54:41.372Z,15.56
2018-12-06T05:55:13.342Z,15.67
2018-12-06T05:55:45.322Z,15.59
2018-12-06T05:56:17.322Z,15.62
2018-12-06T05:56:49.291Z,15.59
2018-12-06T05:57:21.250Z,15.63
2018-12-06T05:57:53.222Z,15.73
2018-12-06T05:58:25.244Z,15.59
2018-12-06T05:58:57.234Z,15.59
2018-12-06T05:59:29.197Z,15.59
2018-12-06T06:00:01.190Z,15.68
2018-12-06T06:00:33.160Z,15.7
2018-12-06T06:01:05.168Z,15.59
2018-12-06T06:01:37.171Z,15.7
2018-12-06T06:02:09.147Z,15.7
2018-12-06T06:02:41.122Z,15.59
2018-12-06T06:03:13.113Z,15.62
2018-12-06T06:03:45.089Z,15.7
2018-12-06T06:04:17.085Z,15.58
2018-12-06T06:04:49.077Z,15.71
2018-12-06T06:05:21.064Z,15.62
2018-12-06T06:05:53.045Z,15.63
2018-12-06T06:06:25.030Z,15.71
2018-12-06T06:06:57.012Z,15.59
2018-12-06T06:07:29.001Z,15.67
2018-12-06T06:08:01.077Z,15.71
2018-12-06T06:08:33.070Z,15.6
2018-12-06T06:09:05.056Z,15.75
2018-12-06T06:09:37.051Z,15.67
2018-12-06T06:10:09.040Z,15.6
2018-12-06T06:10:41.025Z,15.71
2018-12-06T06:11:13.013Z,15.63
2018-12-06T06:11:44.988Z,15.67
2018-12-06T06:12:16.958Z,15.7
2018-12-06T06:12:48.951Z,15.6
2018-12-06T06:13:20.931Z,15.67
2018-12-06T06:13:52.925Z,15.63
2018-12-06T06:14:24.900Z,15.75
2018-12-06T06:14:56.871Z,15.6
2018-12-06T06:15:28.851Z,15.67
2018-12-06T06:16:00.839Z,15.71
2018-12-06T06:16:32.791Z,15.73
2018-12-06T06:17:04.783Z,15.74
2018-12-06T06:17:36.764Z,15.6
2018-12-06T06:18:08.738Z,15.6
2018-12-06T06:18:40.733Z,15.71
2018-12-06T06:19:12.707Z,15.71
2018-12-06T06:19:44.692Z,15.67
2018-12-06T06:20:16.669Z,15.6
2018-12-06T06:20:48.644Z,15.68
2018-12-06T06:21:20.612Z,15.63
2018-12-06T06:21:52.614Z,15.73
2018-12-06T06:22:24.596Z,15.73
2018-12-06T06:22:56.590Z,15.73
2018-12-06T06:23:28.573Z,15.6
2018-12-06T06:24:00.573Z,15.67
2018-12-06T06:24:32.540Z,15.65
2018-12-06T06:25:04.624Z,15.77
2018-12-06T06:25:36.655Z,15.71
2018-12-06T06:26:08.718Z,15.62
2018-12-06T06:26:40.801Z,15.75
2018-12-06T06:27:12.863Z,15.77
2018-12-06T06:27:44.880Z,15.7
2018-12-06T06:28:16.924Z,15.67
2018-12-06T06:28:48.902Z,15.74
2018-12-06T06:29:21.303Z,15.6
2018-12-06T06:29:53.340Z,15.63
2018-12-06T06:30:25.339Z,15.71
2018-12-06T06:30:57.568Z,15.65
2018-12-06T06:31:30.485Z,15.77
2018-12-06T06:32:02.547Z,15.67
2018-12-06T06:32:34.534Z,15.65
2018-12-06T06:33:06.510Z,15.62
2018-12-06T06:33:40.418Z,15.63
2018-12-06T06:34:12.407Z,15.65
2018-12-06T06:34:44.386Z,15.73
2018-12-06T06:35:16.363Z,15.75
2018-12-06T06:35:48.347Z,15.8
2018-12-06T06:36:20.341Z,15.7
2018-12-06T06:36:52.305Z,15.67
2018-12-06T06:37:24.294Z,15.75
2018-12-06T06:37:56.275Z,15.75
2018-12-06T06:38:28.340Z,15.63
2018-12-06T06:39:00.332Z,15.73
2018-12-06T06:39:32.322Z,15.74
2018-12-06T06:40:04.320Z,15.7
2018-12-06T06:40:36.319Z,15.7
2018-12-06T06:41:08.314Z,15.7
2018-12-06T06:41:40.310Z,15.71
2018-12-06T06:42:12.297Z,15.77
2018-12-06T06:42:44.261Z,15.78
2018-12-06T06:43:16.250Z,15.67
2018-12-06T06:43:48.254Z,15.77
2018-12-06T06:44:20.258Z,15.63
2018-12-06T06:44:52.273Z,15.73
2018-12-06T06:45:24.254Z,15.71
2018-12-06T06:45:56.286Z,15.65
2018-12-06T06:46:28.254Z,15.73
2018-12-06T06:47:00.294Z,15.6
2018-12-06T06:47:32.286Z,15.75
2018-12-06T06:48:04.297Z,15.74
2018-12-06T06:48:36.275Z,15.63
2018-12-06T06:49:13.634Z,15.63
2018-12-06T06:49:45.969Z,15.74
2018-12-06T06:50:17.949Z,15.74
2018-12-06T06:50:49.931Z,15.68
2018-12-06T06:51:21.957Z,15.75
2018-12-06T06:51:54.045Z,15.65
2018-12-06T06:52:26.036Z,15.75
2018-12-06T06:52:58.011Z,15.7
2018-12-06T06:53:29.991Z,15.62
2018-12-06T06:54:02.041Z,15.81